Chico Municipal Airport


Codes: KCIC/CIC
Name: Chico Municipal Airport
City: Chico
Country: United States
Elevation: 240 ft.
Wikipedia:

Photos at Chico Municipal Airport


   Photos courtesy of SpottingLog. You can add your own sightings and photos by signing up for a free trial today.



No photos found.

Weather at Chico Municipal Airport


Time (UTC)DescriptionTempratureWindCloud coverageVisibilityPressureHumidity
21-Jun-2024 12:00Clear Sky18°C2 mph, N0%10000m1007hPa52%
21-Jun-2024 15:00Clear Sky21°C4 mph, W3%10000m1008hPa37%
21-Jun-2024 18:00Clear Sky33°C2 mph, W2%10000m1007hPa16%
21-Jun-2024 21:00Clear Sky40°C4 mph, S0%10000m1005hPa10%
22-Jun-2024 00:00Clear Sky42°C7 mph, S0%10000m1002hPa7%
22-Jun-2024 03:00Few Clouds35°C9 mph, SE19%10000m1003hPa14%
22-Jun-2024 06:00Scattered Clouds26°C7 mph, E28%10000m1005hPa25%
22-Jun-2024 09:00Clear Sky23°C2 mph, NE0%10000m1006hPa27%
22-Jun-2024 12:00Clear Sky20°C2 mph, NE0%10000m1007hPa29%
22-Jun-2024 15:00Clear Sky26°C2 mph, SW0%10000m1008hPa23%
22-Jun-2024 18:00Clear Sky36°C2 mph, SW1%10000m1007hPa16%
22-Jun-2024 21:00Clear Sky41°C7 mph, S0%10000m1005hPa11%
23-Jun-2024 00:00Clear Sky42°C11 mph, S0%10000m1003hPa8%
23-Jun-2024 03:00Clear Sky38°C9 mph, SE0%10000m1003hPa11%
23-Jun-2024 06:00Clear Sky28°C7 mph, E0%10000m1005hPa19%
23-Jun-2024 09:00Clear Sky24°C2 mph, SE0%10000m1006hPa25%
23-Jun-2024 12:00Clear Sky20°C2 mph, NE0%10000m1007hPa32%
23-Jun-2024 15:00Clear Sky26°C2 mph, SW0%10000m1009hPa24%
23-Jun-2024 18:00Clear Sky34°C11 mph, SE0%10000m1008hPa14%
23-Jun-2024 21:00Clear Sky40°C11 mph, S0%10000m1006hPa8%
24-Jun-2024 00:00Clear Sky41°C13 mph, S0%10000m1004hPa7%
24-Jun-2024 03:00Clear Sky35°C11 mph, SE0%10000m1004hPa11%
24-Jun-2024 06:00Clear Sky26°C7 mph, SE0%10000m1006hPa25%
24-Jun-2024 09:00Clear Sky20°C2 mph, SE0%10000m1008hPa37%
24-Jun-2024 12:00Clear Sky17°C2 mph, SE0%10000m1010hPa42%
24-Jun-2024 15:00Clear Sky22°C2 mph, SW0%10000m1011hPa35%
24-Jun-2024 18:00Clear Sky31°C4 mph, S0%10000m1011hPa20%
24-Jun-2024 21:00Clear Sky37°C9 mph, S0%10000m1008hPa9%
25-Jun-2024 00:00Clear Sky39°C11 mph, S0%10000m1006hPa7%
25-Jun-2024 03:00Clear Sky35°C9 mph, SE0%10000m1006hPa7%
25-Jun-2024 06:00Clear Sky25°C9 mph, E0%10000m1008hPa16%
25-Jun-2024 09:00Clear Sky19°C2 mph, SE0%10000m1009hPa27%
25-Jun-2024 12:00Clear Sky16°C2 mph, NE0%10000m1010hPa29%
25-Jun-2024 15:00Clear Sky23°C4 mph, W0%10000m1011hPa23%
25-Jun-2024 18:00Clear Sky33°C4 mph, W0%10000m1010hPa13%
25-Jun-2024 21:00Clear Sky38°C7 mph, S0%10000m1008hPa8%
26-Jun-2024 00:00Clear Sky40°C9 mph, S0%10000m1006hPa7%
26-Jun-2024 03:00Clear Sky35°C7 mph, SE0%10000m1007hPa11%
26-Jun-2024 06:00Clear Sky27°C7 mph, E0%10000m1009hPa18%
26-Jun-2024 09:00Clear Sky20°C2 mph, NE0%10000m1010hPa26%